sensor_id;sensor_type;location;lat;lon;timestamp;P1;durP1;ratioP1;P2;durP2;ratioP2
32365;SDS011;18837;46.832;16.838;2024-03-08T00:00:07;26.10;;;19.90;;
32365;SDS011;18837;46.832;16.838;2024-03-08T00:02:51;30.73;;;20.13;;
32365;SDS011;18837;46.832;16.838;2024-03-08T00:05:29;27.87;;;19.80;;
32365;SDS011;18837;46.832;16.838;2024-03-08T00:07:55;26.50;;;20.07;;
32365;SDS011;18837;46.832;16.838;2024-03-08T00:10:20;25.67;;;19.30;;
32365;SDS011;18837;46.832;16.838;2024-03-08T00:12:46;27.47;;;19.10;;
32365;SDS011;18837;46.832;16.838;2024-03-08T00:15:13;26.13;;;18.80;;
32365;SDS011;18837;46.832;16.838;2024-03-08T00:17:41;29.83;;;20.27;;
32365;SDS011;18837;46.832;16.838;2024-03-08T00:20:16;28.37;;;20.67;;
32365;SDS011;18837;46.832;16.838;2024-03-08T00:22:44;26.17;;;19.83;;
32365;SDS011;18837;46.832;16.838;2024-03-08T00:25:11;25.53;;;18.73;;
32365;SDS011;18837;46.832;16.838;2024-03-08T00:27:39;27.60;;;21.03;;
32365;SDS011;18837;46.832;16.838;2024-03-08T00:30:06;26.10;;;19.87;;
32365;SDS011;18837;46.832;16.838;2024-03-08T00:32:33;28.60;;;20.10;;
32365;SDS011;18837;46.832;16.838;2024-03-08T00:34:58;29.10;;;19.83;;
32365;SDS011;18837;46.832;16.838;2024-03-08T00:40:23;29.70;;;20.57;;
32365;SDS011;18837;46.832;16.838;2024-03-08T00:42:49;29.93;;;20.57;;
32365;SDS011;18837;46.832;16.838;2024-03-08T00:45:15;29.03;;;20.77;;
32365;SDS011;18837;46.832;16.838;2024-03-08T00:47:41;27.77;;;20.13;;
32365;SDS011;18837;46.832;16.838;2024-03-08T00:50:09;29.67;;;20.77;;
32365;SDS011;18837;46.832;16.838;2024-03-08T00:52:35;27.33;;;20.70;;
32365;SDS011;18837;46.832;16.838;2024-03-08T00:55:10;27.30;;;19.93;;
32365;SDS011;18837;46.832;16.838;2024-03-08T00:57:37;26.87;;;19.50;;
32365;SDS011;18837;46.832;16.838;2024-03-08T01:00:04;29.17;;;20.90;;
32365;SDS011;18837;46.832;16.838;2024-03-08T01:02:34;29.37;;;21.17;;
32365;SDS011;18837;46.832;16.838;2024-03-08T01:05:01;28.83;;;20.50;;
32365;SDS011;18837;46.832;16.838;2024-03-08T01:07:27;29.57;;;21.60;;
32365;SDS011;18837;46.832;16.838;2024-03-08T01:09:52;30.43;;;21.13;;
32365;SDS011;18837;46.832;16.838;2024-03-08T01:15:20;30.90;;;20.63;;
32365;SDS011;18837;46.832;16.838;2024-03-08T01:17:45;29.00;;;20.30;;
32365;SDS011;18837;46.832;16.838;2024-03-08T01:20:11;34.67;;;22.40;;
32365;SDS011;18837;46.832;16.838;2024-03-08T01:22:37;30.93;;;21.43;;
32365;SDS011;18837;46.832;16.838;2024-03-08T01:25:03;31.60;;;22.37;;
32365;SDS011;18837;46.832;16.838;2024-03-08T01:27:30;31.90;;;21.50;;
32365;SDS011;18837;46.832;16.838;2024-03-08T01:29:56;30.40;;;21.80;;
32365;SDS011;18837;46.832;16.838;2024-03-08T01:32:24;32.93;;;22.23;;
32365;SDS011;18837;46.832;16.838;2024-03-08T01:34:50;30.73;;;22.27;;
32365;SDS011;18837;46.832;16.838;2024-03-08T01:37:15;32.07;;;21.57;;
32365;SDS011;18837;46.832;16.838;2024-03-08T01:39:41;32.63;;;22.87;;
32365;SDS011;18837;46.832;16.838;2024-03-08T01:42:07;32.93;;;22.03;;
32365;SDS011;18837;46.832;16.838;2024-03-08T01:44:45;31.33;;;21.80;;
32365;SDS011;18837;46.832;16.838;2024-03-08T01:50:13;34.23;;;24.10;;
32365;SDS011;18837;46.832;16.838;2024-03-08T01:52:47;30.87;;;21.93;;
32365;SDS011;18837;46.832;16.838;2024-03-08T01:55:13;30.60;;;22.00;;
32365;SDS011;18837;46.832;16.838;2024-03-08T01:57:39;32.73;;;22.67;;
32365;SDS011;18837;46.832;16.838;2024-03-08T02:00:05;31.23;;;22.17;;
32365;SDS011;18837;46.832;16.838;2024-03-08T02:02:35;32.63;;;23.10;;
32365;SDS011;18837;46.832;16.838;2024-03-08T02:05:08;34.00;;;22.03;;
32365;SDS011;18837;46.832;16.838;2024-03-08T02:07:34;30.37;;;22.77;;
32365;SDS011;18837;46.832;16.838;2024-03-08T02:10:00;32.80;;;23.67;;
32365;SDS011;18837;46.832;16.838;2024-03-08T02:12:25;33.07;;;22.10;;
32365;SDS011;18837;46.832;16.838;2024-03-08T02:14:51;31.43;;;22.93;;
32365;SDS011;18837;46.832;16.838;2024-03-08T02:17:19;33.13;;;23.20;;
32365;SDS011;18837;46.832;16.838;2024-03-08T02:19:50;35.70;;;23.90;;
32365;SDS011;18837;46.832;16.838;2024-03-08T02:22:28;31.63;;;22.37;;
32365;SDS011;18837;46.832;16.838;2024-03-08T02:25:14;33.63;;;23.33;;
32365;SDS011;18837;46.832;16.838;2024-03-08T02:27:40;32.43;;;22.33;;
32365;SDS011;18837;46.832;16.838;2024-03-08T02:30:06;31.93;;;22.87;;
32365;SDS011;18837;46.832;16.838;2024-03-08T02:32:32;35.13;;;23.03;;
32365;SDS011;18837;46.832;16.838;2024-03-08T02:34:58;31.33;;;22.43;;
32365;SDS011;18837;46.832;16.838;2024-03-08T02:37:27;31.60;;;23.03;;
32365;SDS011;18837;46.832;16.838;2024-03-08T02:39:58;33.30;;;23.50;;
32365;SDS011;18837;46.832;16.838;2024-03-08T02:42:24;33.63;;;23.00;;
32365;SDS011;18837;46.832;16.838;2024-03-08T02:44:49;32.87;;;22.23;;
32365;SDS011;18837;46.832;16.838;2024-03-08T02:47:15;31.43;;;22.50;;
32365;SDS011;18837;46.832;16.838;2024-03-08T02:49:41;31.20;;;21.90;;
32365;SDS011;18837;46.832;16.838;2024-03-08T02:52:06;30.23;;;22.47;;
32365;SDS011;18837;46.832;16.838;2024-03-08T03:00:07;34.83;;;23.30;;
32365;SDS011;18837;46.832;16.838;2024-03-08T03:02:36;31.47;;;22.20;;
32365;SDS011;18837;46.832;16.838;2024-03-08T03:05:02;34.17;;;23.50;;
32365;SDS011;18837;46.832;16.838;2024-03-08T03:07:31;33.57;;;23.43;;
32365;SDS011;18837;46.832;16.838;2024-03-08T03:09:58;34.17;;;23.33;;
32365;SDS011;18837;46.832;16.838;2024-03-08T03:12:25;32.23;;;21.83;;
32365;SDS011;18837;46.832;16.838;2024-03-08T03:15:00;33.80;;;23.03;;
32365;SDS011;18837;46.832;16.838;2024-03-08T03:17:26;34.70;;;23.33;;
32365;SDS011;18837;46.832;16.838;2024-03-08T03:19:52;35.50;;;23.27;;
32365;SDS011;18837;46.832;16.838;2024-03-08T03:22:18;35.67;;;23.93;;
32365;SDS011;18837;46.832;16.838;2024-03-08T03:24:44;31.97;;;23.70;;
32365;SDS011;18837;46.832;16.838;2024-03-08T03:27:14;34.43;;;23.23;;
32365;SDS011;18837;46.832;16.838;2024-03-08T03:29:43;34.83;;;23.50;;
32365;SDS011;18837;46.832;16.838;2024-03-08T03:34:56;33.33;;;23.07;;
32365;SDS011;18837;46.832;16.838;2024-03-08T03:37:23;34.70;;;23.47;;
32365;SDS011;18837;46.832;16.838;2024-03-08T03:39:48;31.40;;;23.37;;
32365;SDS011;18837;46.832;16.838;2024-03-08T03:42:15;35.67;;;23.33;;
32365;SDS011;18837;46.832;16.838;2024-03-08T03:44:41;32.20;;;22.87;;
32365;SDS011;18837;46.832;16.838;2024-03-08T03:47:11;32.60;;;22.63;;
32365;SDS011;18837;46.832;16.838;2024-03-08T03:49:41;30.83;;;22.23;;
32365;SDS011;18837;46.832;16.838;2024-03-08T03:52:07;30.73;;;22.10;;
32365;SDS011;18837;46.832;16.838;2024-03-08T03:54:33;33.87;;;22.90;;
32365;SDS011;18837;46.832;16.838;2024-03-08T03:56:59;31.87;;;23.33;;
32365;SDS011;18837;46.832;16.838;2024-03-08T03:59:25;32.73;;;23.07;;
32365;SDS011;18837;46.832;16.838;2024-03-08T04:01:52;33.80;;;23.27;;
32365;SDS011;18837;46.832;16.838;2024-03-08T04:04:34;33.50;;;22.87;;
32365;SDS011;18837;46.832;16.838;2024-03-08T04:07:13;33.40;;;21.97;;
32365;SDS011;18837;46.832;16.838;2024-03-08T04:09:39;30.10;;;21.93;;
32365;SDS011;18837;46.832;16.838;2024-03-08T04:12:05;31.77;;;21.97;;
32365;SDS011;18837;46.832;16.838;2024-03-08T04:14:31;34.03;;;23.47;;
32365;SDS011;18837;46.832;16.838;2024-03-08T04:16:56;29.13;;;21.70;;
32365;SDS011;18837;46.832;16.838;2024-03-08T04:19:22;33.07;;;22.73;;
32365;SDS011;18837;46.832;16.838;2024-03-08T04:24:33;31.63;;;21.43;;
32365;SDS011;18837;46.832;16.838;2024-03-08T04:27:00;36.17;;;23.10;;
32365;SDS011;18837;46.832;16.838;2024-03-08T04:29:26;31.13;;;20.73;;
32365;SDS011;18837;46.832;16.838;2024-03-08T04:31:52;33.30;;;22.57;;
32365;SDS011;18837;46.832;16.838;2024-03-08T04:34:19;31.70;;;22.43;;
32365;SDS011;18837;46.832;16.838;2024-03-08T04:36:47;31.90;;;21.20;;
32365;SDS011;18837;46.832;16.838;2024-03-08T04:39:29;30.60;;;21.57;;
32365;SDS011;18837;46.832;16.838;2024-03-08T04:42:07;31.97;;;21.93;;
32365;SDS011;18837;46.832;16.838;2024-03-08T04:44:39;33.77;;;22.60;;
32365;SDS011;18837;46.832;16.838;2024-03-08T04:47:05;33.63;;;21.90;;
32365;SDS011;18837;46.832;16.838;2024-03-08T04:49:32;34.37;;;23.40;;
32365;SDS011;18837;46.832;16.838;2024-03-08T04:52:00;31.30;;;22.00;;
32365;SDS011;18837;46.832;16.838;2024-03-08T04:54:32;32.43;;;21.90;;
32365;SDS011;18837;46.832;16.838;2024-03-08T04:57:07;30.30;;;21.60;;
32365;SDS011;18837;46.832;16.838;2024-03-08T04:59:33;33.60;;;22.97;;
32365;SDS011;18837;46.832;16.838;2024-03-08T05:01:59;35.20;;;23.17;;
32365;SDS011;18837;46.832;16.838;2024-03-08T05:04:25;34.53;;;22.43;;
32365;SDS011;18837;46.832;16.838;2024-03-08T05:06:51;31.40;;;21.73;;
32365;SDS011;18837;46.832;16.838;2024-03-08T05:09:17;33.70;;;22.30;;
32365;SDS011;18837;46.832;16.838;2024-03-08T05:11:53;32.03;;;22.17;;
32365;SDS011;18837;46.832;16.838;2024-03-08T05:17:21;33.30;;;22.30;;
32365;SDS011;18837;46.832;16.838;2024-03-08T05:19:49;32.37;;;23.23;;
32365;SDS011;18837;46.832;16.838;2024-03-08T05:22:15;33.30;;;22.00;;
32365;SDS011;18837;46.832;16.838;2024-03-08T05:24:42;32.37;;;21.77;;
32365;SDS011;18837;46.832;16.838;2024-03-08T05:27:09;32.27;;;22.20;;
32365;SDS011;18837;46.832;16.838;2024-03-08T05:29:35;32.27;;;22.53;;
32365;SDS011;18837;46.832;16.838;2024-03-08T05:32:07;33.40;;;22.53;;
32365;SDS011;18837;46.832;16.838;2024-03-08T05:34:33;31.60;;;22.37;;
32365;SDS011;18837;46.832;16.838;2024-03-08T05:36:58;30.73;;;21.90;;
32365;SDS011;18837;46.832;16.838;2024-03-08T05:39:25;31.33;;;21.80;;
32365;SDS011;18837;46.832;16.838;2024-03-08T05:41:51;32.13;;;21.87;;
32365;SDS011;18837;46.832;16.838;2024-03-08T05:44:16;30.67;;;21.67;;
32365;SDS011;18837;46.832;16.838;2024-03-08T05:46:51;33.67;;;22.67;;
32365;SDS011;18837;46.832;16.838;2024-03-08T05:49:36;36.23;;;22.53;;
32365;SDS011;18837;46.832;16.838;2024-03-08T05:52:07;34.97;;;21.40;;
32365;SDS011;18837;46.832;16.838;2024-03-08T05:54:34;33.33;;;22.77;;
32365;SDS011;18837;46.832;16.838;2024-03-08T05:57:00;30.27;;;21.47;;
32365;SDS011;18837;46.832;16.838;2024-03-08T05:59:26;32.17;;;22.27;;
32365;SDS011;18837;46.832;16.838;2024-03-08T06:01:51;32.80;;;22.07;;
32365;SDS011;18837;46.832;16.838;2024-03-08T06:04:17;31.07;;;21.57;;
32365;SDS011;18837;46.832;16.838;2024-03-08T06:06:46;33.67;;;21.93;;
32365;SDS011;18837;46.832;16.838;2024-03-08T06:09:13;33.30;;;21.90;;
32365;SDS011;18837;46.832;16.838;2024-03-08T06:11:42;33.80;;;23.50;;
32365;SDS011;18837;46.832;16.838;2024-03-08T06:14:08;34.53;;;22.40;;
32365;SDS011;18837;46.832;16.838;2024-03-08T06:16:34;33.53;;;23.23;;
32365;SDS011;18837;46.832;16.838;2024-03-08T06:19:00;31.87;;;22.37;;
32365;SDS011;18837;46.832;16.838;2024-03-08T06:21:34;30.57;;;21.73;;
32365;SDS011;18837;46.832;16.838;2024-03-08T06:26:55;30.63;;;21.53;;
32365;SDS011;18837;46.832;16.838;2024-03-08T06:29:22;33.50;;;22.97;;
32365;SDS011;18837;46.832;16.838;2024-03-08T06:31:48;33.17;;;22.47;;
32365;SDS011;18837;46.832;16.838;2024-03-08T06:34:14;34.47;;;23.70;;
32365;SDS011;18837;46.832;16.838;2024-03-08T06:36:40;35.60;;;23.03;;
32365;SDS011;18837;46.832;16.838;2024-03-08T06:39:06;33.37;;;21.80;;
32365;SDS011;18837;46.832;16.838;2024-03-08T06:41:38;36.13;;;23.73;;
32365;SDS011;18837;46.832;16.838;2024-03-08T06:44:03;33.73;;;23.60;;
32365;SDS011;18837;46.832;16.838;2024-03-08T06:46:30;34.00;;;22.87;;
32365;SDS011;18837;46.832;16.838;2024-03-08T06:48:56;34.70;;;24.37;;
32365;SDS011;18837;46.832;16.838;2024-03-08T06:51:22;33.87;;;23.67;;
32365;SDS011;18837;46.832;16.838;2024-03-08T06:53:48;37.03;;;24.07;;
32365;SDS011;18837;46.832;16.838;2024-03-08T06:56:19;33.47;;;23.07;;
32365;SDS011;18837;46.832;16.838;2024-03-08T06:59:03;35.87;;;23.83;;
32365;SDS011;18837;46.832;16.838;2024-03-08T07:01:34;34.80;;;21.97;;
32365;SDS011;18837;46.832;16.838;2024-03-08T07:04:01;36.07;;;24.10;;
32365;SDS011;18837;46.832;16.838;2024-03-08T07:06:30;34.80;;;23.53;;
32365;SDS011;18837;46.832;16.838;2024-03-08T07:08:58;37.57;;;23.37;;
32365;SDS011;18837;46.832;16.838;2024-03-08T07:11:24;33.87;;;22.50;;
32365;SDS011;18837;46.832;16.838;2024-03-08T07:13:50;33.90;;;22.77;;
32365;SDS011;18837;46.832;16.838;2024-03-08T07:16:19;33.97;;;23.30;;
32365;SDS011;18837;46.832;16.838;2024-03-08T07:18:46;32.97;;;22.93;;
32365;SDS011;18837;46.832;16.838;2024-03-08T07:21:12;37.30;;;24.10;;
32365;SDS011;18837;46.832;16.838;2024-03-08T07:23:38;36.97;;;23.60;;
32365;SDS011;18837;46.832;16.838;2024-03-08T07:26:39;33.13;;;22.80;;
32365;SDS011;18837;46.832;16.838;2024-03-08T07:29:05;36.00;;;25.07;;
32365;SDS011;18837;46.832;16.838;2024-03-08T07:35:15;36.90;;;24.00;;
32365;SDS011;18837;46.832;16.838;2024-03-08T07:37:43;37.53;;;23.20;;
32365;SDS011;18837;46.832;16.838;2024-03-08T07:40:09;35.43;;;23.73;;
32365;SDS011;18837;46.832;16.838;2024-03-08T07:42:35;33.93;;;23.90;;
32365;SDS011;18837;46.832;16.838;2024-03-08T07:45:02;34.73;;;24.27;;
32365;SDS011;18837;46.832;16.838;2024-03-08T07:47:29;35.03;;;23.70;;
32365;SDS011;18837;46.832;16.838;2024-03-08T07:49:57;33.97;;;23.23;;
32365;SDS011;18837;46.832;16.838;2024-03-08T07:52:25;35.60;;;23.07;;
32365;SDS011;18837;46.832;16.838;2024-03-08T07:54:51;34.83;;;24.47;;
32365;SDS011;18837;46.832;16.838;2024-03-08T07:57:17;34.80;;;24.83;;
32365;SDS011;18837;46.832;16.838;2024-03-08T07:59:43;34.07;;;23.60;;
32365;SDS011;18837;46.832;16.838;2024-03-08T08:02:08;36.37;;;24.20;;
32365;SDS011;18837;46.832;16.838;2024-03-08T08:10:23;38.27;;;24.20;;
32365;SDS011;18837;46.832;16.838;2024-03-08T08:12:50;32.73;;;24.00;;
32365;SDS011;18837;46.832;16.838;2024-03-08T08:15:19;37.53;;;23.90;;
32365;SDS011;18837;46.832;16.838;2024-03-08T08:17:45;37.37;;;23.63;;
32365;SDS011;18837;46.832;16.838;2024-03-08T08:20:11;35.90;;;23.40;;
32365;SDS011;18837;46.832;16.838;2024-03-08T08:22:40;36.17;;;24.93;;
32365;SDS011;18837;46.832;16.838;2024-03-08T08:25:08;33.23;;;22.83;;
32365;SDS011;18837;46.832;16.838;2024-03-08T08:27:34;35.37;;;22.80;;
32365;SDS011;18837;46.832;16.838;2024-03-08T08:30:04;32.97;;;22.50;;
32365;SDS011;18837;46.832;16.838;2024-03-08T08:32:34;39.80;;;23.80;;
32365;SDS011;18837;46.832;16.838;2024-03-08T08:35:04;36.53;;;23.27;;
32365;SDS011;18837;46.832;16.838;2024-03-08T08:37:32;36.17;;;23.17;;
32365;SDS011;18837;46.832;16.838;2024-03-08T08:45:44;32.10;;;21.80;;
32365;SDS011;18837;46.832;16.838;2024-03-08T08:48:12;34.70;;;23.13;;
32365;SDS011;18837;46.832;16.838;2024-03-08T08:50:38;33.93;;;21.33;;
32365;SDS011;18837;46.832;16.838;2024-03-08T08:53:04;36.67;;;21.83;;
32365;SDS011;18837;46.832;16.838;2024-03-08T08:55:31;30.70;;;21.03;;
32365;SDS011;18837;46.832;16.838;2024-03-08T08:58:00;31.33;;;20.97;;
32365;SDS011;18837;46.832;16.838;2024-03-08T09:00:33;32.47;;;20.73;;
32365;SDS011;18837;46.832;16.838;2024-03-08T09:03:00;34.63;;;21.10;;
32365;SDS011;18837;46.832;16.838;2024-03-08T09:05:27;33.63;;;22.33;;
32365;SDS011;18837;46.832;16.838;2024-03-08T09:07:53;31.77;;;21.13;;
32365;SDS011;18837;46.832;16.838;2024-03-08T09:10:19;33.07;;;21.30;;
32365;SDS011;18837;46.832;16.838;2024-03-08T09:12:46;33.90;;;22.83;;
32365;SDS011;18837;46.832;16.838;2024-03-08T09:15:24;34.97;;;21.67;;
32365;SDS011;18837;46.832;16.838;2024-03-08T09:18:05;30.77;;;20.40;;
32365;SDS011;18837;46.832;16.838;2024-03-08T09:20:31;33.73;;;20.60;;
32365;SDS011;18837;46.832;16.838;2024-03-08T09:22:57;29.93;;;20.90;;
32365;SDS011;18837;46.832;16.838;2024-03-08T09:25:23;33.97;;;21.23;;
32365;SDS011;18837;46.832;16.838;2024-03-08T09:27:49;32.77;;;21.47;;
32365;SDS011;18837;46.832;16.838;2024-03-08T09:30:15;28.83;;;20.80;;
32365;SDS011;18837;46.832;16.838;2024-03-08T09:32:53;28.20;;;20.17;;
32365;SDS011;18837;46.832;16.838;2024-03-08T09:35:19;33.23;;;20.67;;
32365;SDS011;18837;46.832;16.838;2024-03-08T09:37:45;31.30;;;20.33;;
32365;SDS011;18837;46.832;16.838;2024-03-08T09:40:13;32.97;;;20.00;;
32365;SDS011;18837;46.832;16.838;2024-03-08T09:42:40;25.73;;;18.63;;
32365;SDS011;18837;46.832;16.838;2024-03-08T09:45:10;28.63;;;18.90;;
32365;SDS011;18837;46.832;16.838;2024-03-08T09:47:43;27.93;;;19.27;;
32365;SDS011;18837;46.832;16.838;2024-03-08T09:53:18;29.07;;;20.27;;
32365;SDS011;18837;46.832;16.838;2024-03-08T09:55:47;24.63;;;17.90;;
32365;SDS011;18837;46.832;16.838;2024-03-08T09:58:14;27.50;;;18.90;;
32365;SDS011;18837;46.832;16.838;2024-03-08T10:00:46;30.00;;;18.97;;
32365;SDS011;18837;46.832;16.838;2024-03-08T10:03:12;26.23;;;18.10;;
32365;SDS011;18837;46.832;16.838;2024-03-08T10:05:39;30.37;;;20.10;;
32365;SDS011;18837;46.832;16.838;2024-03-08T10:08:11;26.40;;;18.23;;
32365;SDS011;18837;46.832;16.838;2024-03-08T10:10:38;26.63;;;19.30;;
32365;SDS011;18837;46.832;16.838;2024-03-08T10:13:08;27.80;;;18.97;;
32365;SDS011;18837;46.832;16.838;2024-03-08T10:15:35;29.77;;;19.77;;
32365;SDS011;18837;46.832;16.838;2024-03-08T10:18:01;28.93;;;20.63;;
32365;SDS011;18837;46.832;16.838;2024-03-08T10:20:27;27.97;;;18.93;;
32365;SDS011;18837;46.832;16.838;2024-03-08T10:23:05;28.33;;;19.23;;
32365;SDS011;18837;46.832;16.838;2024-03-08T10:25:34;26.53;;;18.70;;
32365;SDS011;18837;46.832;16.838;2024-03-08T10:33:47;26.37;;;18.17;;
32365;SDS011;18837;46.832;16.838;2024-03-08T10:36:13;27.77;;;17.83;;
32365;SDS011;18837;46.832;16.838;2024-03-08T10:38:40;25.53;;;17.83;;
32365;SDS011;18837;46.832;16.838;2024-03-08T10:41:12;25.10;;;16.87;;
32365;SDS011;18837;46.832;16.838;2024-03-08T10:47:17;24.33;;;17.00;;
32365;SDS011;18837;46.832;16.838;2024-03-08T10:49:51;24.97;;;17.47;;
32365;SDS011;18837;46.832;16.838;2024-03-08T10:52:43;22.87;;;16.70;;
32365;SDS011;18837;46.832;16.838;2024-03-08T10:55:09;25.43;;;17.83;;
32365;SDS011;18837;46.832;16.838;2024-03-08T11:07:44;23.87;;;16.90;;
32365;SDS011;18837;46.832;16.838;2024-03-08T11:10:18;24.53;;;17.20;;
32365;SDS011;18837;46.832;16.838;2024-03-08T11:12:45;21.53;;;15.47;;
32365;SDS011;18837;46.832;16.838;2024-03-08T11:15:13;21.33;;;15.50;;
32365;SDS011;18837;46.832;16.838;2024-03-08T11:17:58;20.43;;;14.37;;
32365;SDS011;18837;46.832;16.838;2024-03-08T11:20:25;21.43;;;15.17;;
32365;SDS011;18837;46.832;16.838;2024-03-08T11:22:53;23.77;;;15.37;;
32365;SDS011;18837;46.832;16.838;2024-03-08T11:25:36;25.87;;;15.93;;
32365;SDS011;18837;46.832;16.838;2024-03-08T11:28:14;22.53;;;15.57;;
32365;SDS011;18837;46.832;16.838;2024-03-08T11:30:43;22.47;;;15.77;;
32365;SDS011;18837;46.832;16.838;2024-03-08T11:36:47;21.83;;;15.30;;
32365;SDS011;18837;46.832;16.838;2024-03-08T11:39:13;21.77;;;14.60;;
32365;SDS011;18837;46.832;16.838;2024-03-08T11:41:42;20.77;;;15.63;;
32365;SDS011;18837;46.832;16.838;2024-03-08T11:44:10;19.70;;;14.90;;
32365;SDS011;18837;46.832;16.838;2024-03-08T11:46:41;20.73;;;14.33;;
32365;SDS011;18837;46.832;16.838;2024-03-08T11:49:11;18.90;;;13.53;;
32365;SDS011;18837;46.832;16.838;2024-03-08T11:51:43;20.10;;;13.53;;
32365;SDS011;18837;46.832;16.838;2024-03-08T11:54:12;18.10;;;13.30;;
32365;SDS011;18837;46.832;16.838;2024-03-08T11:56:38;20.17;;;14.80;;
32365;SDS011;18837;46.832;16.838;2024-03-08T11:59:10;18.73;;;13.83;;
32365;SDS011;18837;46.832;16.838;2024-03-08T12:01:38;19.90;;;13.60;;
32365;SDS011;18837;46.832;16.838;2024-03-08T12:04:04;16.97;;;13.27;;
32365;SDS011;18837;46.832;16.838;2024-03-08T12:10:13;17.93;;;12.40;;
32365;SDS011;18837;46.832;16.838;2024-03-08T12:12:53;19.20;;;13.20;;
32365;SDS011;18837;46.832;16.838;2024-03-08T12:15:20;17.80;;;12.10;;
32365;SDS011;18837;46.832;16.838;2024-03-08T12:17:49;17.77;;;12.70;;
32365;SDS011;18837;46.832;16.838;2024-03-08T12:20:17;17.23;;;12.70;;
32365;SDS011;18837;46.832;16.838;2024-03-08T12:22:47;16.77;;;12.37;;
32365;SDS011;18837;46.832;16.838;2024-03-08T12:25:14;17.90;;;12.73;;
32365;SDS011;18837;46.832;16.838;2024-03-08T12:27:56;18.23;;;13.20;;
32365;SDS011;18837;46.832;16.838;2024-03-08T12:30:32;16.07;;;12.63;;
32365;SDS011;18837;46.832;16.838;2024-03-08T12:33:01;18.53;;;13.13;;
32365;SDS011;18837;46.832;16.838;2024-03-08T12:35:28;18.73;;;12.80;;
32365;SDS011;18837;46.832;16.838;2024-03-08T12:37:55;17.83;;;12.77;;
32365;SDS011;18837;46.832;16.838;2024-03-08T12:40:29;17.07;;;12.30;;
32365;SDS011;18837;46.832;16.838;2024-03-08T12:48:34;22.27;;;13.07;;
32365;SDS011;18837;46.832;16.838;2024-03-08T12:51:01;17.20;;;13.07;;
32365;SDS011;18837;46.832;16.838;2024-03-08T12:53:26;17.03;;;12.83;;
32365;SDS011;18837;46.832;16.838;2024-03-08T12:55:54;17.30;;;13.13;;
32365;SDS011;18837;46.832;16.838;2024-03-08T12:58:21;18.20;;;12.77;;
32365;SDS011;18837;46.832;16.838;2024-03-08T13:01:03;16.87;;;12.27;;
32365;SDS011;18837;46.832;16.838;2024-03-08T13:03:35;14.60;;;11.57;;
32365;SDS011;18837;46.832;16.838;2024-03-08T13:06:05;17.03;;;12.10;;
32365;SDS011;18837;46.832;16.838;2024-03-08T13:08:37;14.87;;;11.57;;
32365;SDS011;18837;46.832;16.838;2024-03-08T13:11:09;16.30;;;11.83;;
32365;SDS011;18837;46.832;16.838;2024-03-08T13:13:39;15.43;;;12.00;;
32365;SDS011;18837;46.832;16.838;2024-03-08T13:19:15;16.33;;;12.83;;
32365;SDS011;18837;46.832;16.838;2024-03-08T13:21:56;16.03;;;11.57;;
32365;SDS011;18837;46.832;16.838;2024-03-08T13:24:22;16.27;;;11.67;;
32365;SDS011;18837;46.832;16.838;2024-03-08T13:26:49;18.93;;;11.47;;
32365;SDS011;18837;46.832;16.838;2024-03-08T13:29:15;18.50;;;12.80;;
32365;SDS011;18837;46.832;16.838;2024-03-08T13:31:43;17.40;;;11.73;;
32365;SDS011;18837;46.832;16.838;2024-03-08T13:34:09;18.73;;;12.23;;
32365;SDS011;18837;46.832;16.838;2024-03-08T13:36:45;21.80;;;16.50;;
32365;SDS011;18837;46.832;16.838;2024-03-08T13:39:11;20.93;;;13.63;;
32365;SDS011;18837;46.832;16.838;2024-03-08T13:41:45;20.03;;;14.50;;
32365;SDS011;18837;46.832;16.838;2024-03-08T13:44:11;17.00;;;13.40;;
32365;SDS011;18837;46.832;16.838;2024-03-08T13:46:37;18.87;;;14.23;;
32365;SDS011;18837;46.832;16.838;2024-03-08T13:49:04;18.90;;;14.13;;
32365;SDS011;18837;46.832;16.838;2024-03-08T13:55:04;15.10;;;12.57;;
32365;SDS011;18837;46.832;16.838;2024-03-08T13:57:31;17.30;;;11.70;;
32365;SDS011;18837;46.832;16.838;2024-03-08T13:59:57;16.97;;;13.50;;
32365;SDS011;18837;46.832;16.838;2024-03-08T14:02:23;17.60;;;12.83;;
32365;SDS011;18837;46.832;16.838;2024-03-08T14:04:56;14.93;;;12.07;;
32365;SDS011;18837;46.832;16.838;2024-03-08T14:07:22;15.07;;;11.20;;
32365;SDS011;18837;46.832;16.838;2024-03-08T14:09:54;17.07;;;12.47;;
32365;SDS011;18837;46.832;16.838;2024-03-08T14:12:20;15.33;;;11.10;;
32365;SDS011;18837;46.832;16.838;2024-03-08T14:14:46;14.93;;;11.00;;
32365;SDS011;18837;46.832;16.838;2024-03-08T14:17:13;17.23;;;12.73;;
32365;SDS011;18837;46.832;16.838;2024-03-08T14:19:42;15.60;;;11.93;;
32365;SDS011;18837;46.832;16.838;2024-03-08T14:22:09;17.03;;;11.73;;
32365;SDS011;18837;46.832;16.838;2024-03-08T14:30:51;16.97;;;11.40;;
32365;SDS011;18837;46.832;16.838;2024-03-08T14:33:20;15.27;;;11.47;;
32365;SDS011;18837;46.832;16.838;2024-03-08T14:35:46;13.47;;;11.40;;
32365;SDS011;18837;46.832;16.838;2024-03-08T14:38:12;15.90;;;11.33;;
32365;SDS011;18837;46.832;16.838;2024-03-08T14:40:38;14.83;;;12.13;;
32365;SDS011;18837;46.832;16.838;2024-03-08T14:43:04;15.50;;;11.07;;
32365;SDS011;18837;46.832;16.838;2024-03-08T14:45:40;14.93;;;11.13;;
32365;SDS011;18837;46.832;16.838;2024-03-08T14:48:06;14.83;;;11.07;;
32365;SDS011;18837;46.832;16.838;2024-03-08T14:50:32;14.53;;;10.67;;
32365;SDS011;18837;46.832;16.838;2024-03-08T14:52:59;14.23;;;11.10;;
32365;SDS011;18837;46.832;16.838;2024-03-08T14:55:25;14.63;;;11.57;;
32365;SDS011;18837;46.832;16.838;2024-03-08T14:57:52;14.80;;;11.60;;
32365;SDS011;18837;46.832;16.838;2024-03-08T15:03:30;15.33;;;11.40;;
32365;SDS011;18837;46.832;16.838;2024-03-08T15:06:42;14.13;;;10.83;;
32365;SDS011;18837;46.832;16.838;2024-03-08T15:09:11;15.50;;;11.57;;
32365;SDS011;18837;46.832;16.838;2024-03-08T15:11:44;15.23;;;11.40;;
32365;SDS011;18837;46.832;16.838;2024-03-08T15:14:10;13.90;;;10.80;;
32365;SDS011;18837;46.832;16.838;2024-03-08T15:16:37;15.50;;;11.73;;
32365;SDS011;18837;46.832;16.838;2024-03-08T15:19:20;17.67;;;11.73;;
32365;SDS011;18837;46.832;16.838;2024-03-08T15:21:46;15.10;;;11.37;;
32365;SDS011;18837;46.832;16.838;2024-03-08T15:24:13;17.50;;;11.40;;
32365;SDS011;18837;46.832;16.838;2024-03-08T15:26:43;14.50;;;10.77;;
32365;SDS011;18837;46.832;16.838;2024-03-08T15:29:09;17.17;;;11.30;;
32365;SDS011;18837;46.832;16.838;2024-03-08T15:31:38;14.77;;;11.40;;
32365;SDS011;18837;46.832;16.838;2024-03-08T15:34:06;13.83;;;10.33;;
32365;SDS011;18837;46.832;16.838;2024-03-08T15:45:19;13.70;;;10.53;;
32365;SDS011;18837;46.832;16.838;2024-03-08T15:47:48;13.37;;;10.20;;
32365;SDS011;18837;46.832;16.838;2024-03-08T15:50:14;13.23;;;10.50;;
32365;SDS011;18837;46.832;16.838;2024-03-08T15:52:46;14.57;;;10.90;;
32365;SDS011;18837;46.832;16.838;2024-03-08T15:58:05;14.33;;;9.73;;
32365;SDS011;18837;46.832;16.838;2024-03-08T16:00:31;13.30;;;10.37;;